Davis Monthan Air Force Base
KDMA : now visible

Airfield :











YOU CAN JOIN US ON...

 
LOGIN :

Register | Disclaimer

   EN    FR    IT 

 









Legend :    VFR   Marginal VFR   IFR   Intensive IFR   Very Intensive IFR
Visi :
Ceiling :
>= 8 km
>= 3000ft
5 to 8 km
1000 to 3000 ft
1500m to 5 km
500 to 1000 ft
800 to 1500m
200 to 500 ft
< 800m
< 200 ft
Symbols :   Thunderstorms  Fog  Heavy snow  Heavy precipitations  Wind > 20 kt






- Airport Elevation : 2704 ft


KDMA - Davis Monthan Air Force Base

CURRENT METAR :
  • 192248Z AUTO 08006KT 10SM -DZ BKN090 18/16 A2982 RMK AO2 DZB26E35DZB48 SLP073 $

EXPIRED METARs :
  • 192235Z AUTO 06006KT 10SM FEW060 18/16 A2981 RMK AO2 DZB26E35 PRESFR SLP069 $
  • 192226Z 08007KT 10SM -DZ FEW065 18/16 A2983 RMK AO2A DZB26 SLP076 $
  • 192158Z 06009KT 10SM FEW027 17/16 A2984 RMK AO2A LTG DSNT W RAE13DZB13E15RAB41E57 SLP082 P0001 T01740156 $
  • 192146Z 06008KT 7SM -RA FEW010 SCT027 BKN037 17/15 A2984 RMK AO2A LTG DSNT W RAE13DZB13E15RAB41 SLP082 $
  • 192140Z AUTO 08008KT 8SM FEW010 BKN016 17/16 A2985 RMK AO2 LTG DSNT W RAE13DZB13E15 BKN V SCT SLP085 $
  • 192125Z AUTO 06009KT 10SM FEW009 SCT014 17/15 A2985 RMK AO2 RAE13DZB13E15 SLP085 $
  • 192058Z AUTO 34003KT 5SM RA OVC039 17/15 A2986 RMK AO2 PK WND 21028/20 LTG DSNT NE TSB01E16TSB23E40 PRESFR SLP089 P0015 60015 T01710153 55013 $
  • 192040Z AUTO 22010KT 5SM RA BR OVC037 17/16 A2989 RMK AO2 LTG DSNT NW-SE TSB01E16TSB23E40 SLP099 $
  • 192033Z AUTO 22009KT 3SM +TSRA BR BKN035 OVC060 17/16 A2989 RMK AO2 TSB01E16TSB23 SLP099 $
  • 192023Z AUTO 22019G28KT 4SM TSRA BKN035 BKN060 19/15 A2987 RMK AO2 TSB01E16TSB23 PRESRR SLP090 $
  • 192016Z AUTO 19017G22KT 9SM -RA VCTS BKN055 BKN070 21/13 A2985 RMK AO2 TSB01E16 PRESRR SLP081 $
  • 192001Z AUTO 00000KT 10SM -TSRA FEW070 FEW085 24/07 A2983 RMK AO2 TSB01 SLP071 $
  • 191958Z AUTO 00000KT 10SM -RA FEW070 FEW085 24/06 A2982 RMK AO2 LTG DSNT SE-NW DZB47E55RAB55 SLP067 P0000 T02390062 $
  • 191947Z AUTO 00000KT 10SM -DZ FEW110 24/05 A2983 RMK AO2 LTG DSNT S-W DZB47 SLP071 $

TAF TAF KDMA
Valid from the 19 at 22:00 until the 21 at 04:00 UTC


1922/2104 VRB06KT 9999 VCSH SCT030 BKN060 OVC300 610808 621607 QNH2981INS
TEMPO 1922/2006 6000 -SHRA BKN030 OVC060 640709
BECMG 2006/2007 19009KT 9999 VCSH SCT030 BKN070 OVC240 610708 621507 QNH2974INS
TEMPO 2007/2012 20012G20KT 8000 -SHRA BKN030 OVC120 640609
BECMG 2012/2013 20012G21KT 9999 VCSH SCT030 BKN060 510006 610609 621506 QNH2973INS
TEMPO 2013/2020 8000 -SHRA BKN030 OVC060 640656
BECMG 2020/2021 20018G27KT 9000 -SHRA BKN030 510006 610606 TX18/1922Z TN13/2012Z



MET'MAP, your aeronautical weather chart ! - Copyright ORBIFLY December 2007 - Disclaimer

ORBIFLY MET'MAP TEAM :

Programming & Development : Alexandra Zaïnal
Concept & Development : Baudouin d'Aumeries
Co-Development & Prog : Marc-Olivier Méhu
Technical & hardware support : Manuel Goepfert

Contact : metmap@orbifly.com




SOURCES & CREDITS :

   NOAA       Earth
Advisory